Terminal Aerodrome Forecast
Issued by NWS Albuquerque, NM

Home | Current Version | Previous Version | Text Only | Print | Product List | Glossary On
Versions: 1 2 3 4 5 6 7 8 9 10 11 12 13 14 15 16 17 18 19 20 21 22
000
FTUS45 KABQ 172345
TAFABQ
TAF
KABQ 172345Z 1800/1824 26007KT P6SM FEW040 BKN060
     FM180200 10005KT P6SM SCT030 BKN050
      TEMPO 1810/1814 BKN030
     FM181400 28005KT P6SM BKN050=

USA.gov is the U.S. government's official web portal to all federal, state and local government web resources and services.